createdAt,value
2022-11-29T00:01:35.145Z,7.29
2022-11-29T00:04:05.184Z,7.34
2022-11-29T00:06:35.324Z,7.22
2022-11-29T00:09:06.331Z,7.18
2022-11-29T00:11:53.705Z,7.16
2022-11-29T00:14:22.757Z,7.15
2022-11-29T00:16:55.322Z,7.21
2022-11-29T00:19:24.791Z,7.08
2022-11-29T00:21:52.690Z,7.10
2022-11-29T00:24:24.794Z,7.00
2022-11-29T00:26:52.673Z,7.03
2022-11-29T00:29:20.679Z,7.03
2022-11-29T00:31:48.540Z,6.98
2022-11-29T00:34:16.565Z,6.82
2022-11-29T00:36:45.790Z,6.93
2022-11-29T00:39:14.224Z,6.94
2022-11-29T00:41:42.006Z,6.95
2022-11-29T00:44:13.992Z,6.82
2022-11-29T00:46:44.913Z,6.86
2022-11-29T00:49:12.747Z,6.86
2022-11-29T00:51:40.620Z,6.86
2022-11-29T00:54:10.018Z,6.76
2022-11-29T00:56:37.883Z,6.80
2022-11-29T00:59:05.744Z,6.82
2022-11-29T01:01:33.622Z,6.84
2022-11-29T01:04:01.797Z,6.89
2022-11-29T01:06:29.709Z,6.88
2022-11-29T01:08:57.656Z,6.74
2022-11-29T01:11:28.659Z,6.66
2022-11-29T01:13:59.250Z,6.66
2022-11-29T01:16:28.828Z,6.68
2022-11-29T01:18:57.215Z,6.72
2022-11-29T01:21:26.100Z,6.74
2022-11-29T01:23:54.923Z,6.72
2022-11-29T01:26:24.697Z,6.80
2022-11-29T01:28:55.814Z,6.68
2022-11-29T01:31:25.752Z,6.58
2022-11-29T01:33:55.327Z,6.58
2022-11-29T01:36:23.398Z,6.64
2022-11-29T01:38:51.784Z,6.69
2022-11-29T01:41:22.010Z,6.69
2022-11-29T01:44:00.383Z,6.54
2022-11-29T01:46:29.548Z,6.46
2022-11-29T01:49:02.844Z,6.51
2022-11-29T01:51:32.158Z,6.56
2022-11-29T01:54:00.520Z,6.50
2022-11-29T01:56:31.104Z,6.57
2022-11-29T01:59:02.435Z,6.56
2022-11-29T02:01:30.355Z,6.55
2022-11-29T02:03:58.290Z,6.44
2022-11-29T02:06:26.680Z,6.44
2022-11-29T02:08:55.778Z,6.44
2022-11-29T02:11:47.697Z,6.42
2022-11-29T02:14:39.767Z,6.53
2022-11-29T02:17:19.283Z,6.50
2022-11-29T02:20:22.964Z,6.48
2022-11-29T02:22:58.446Z,6.45
2022-11-29T02:25:43.526Z,6.45
2022-11-29T02:28:44.435Z,6.54
2022-11-29T02:31:42.214Z,6.56
2022-11-29T02:34:30.224Z,6.60
2022-11-29T02:37:28.543Z,6.48
2022-11-29T02:40:11.936Z,6.53
2022-11-29T02:43:03.896Z,6.53
2022-11-29T02:45:45.174Z,6.45
2022-11-29T02:48:30.935Z,6.36
2022-11-29T02:51:09.427Z,6.35
2022-11-29T02:53:40.638Z,6.36
2022-11-29T02:56:14.842Z,6.31
2022-11-29T02:58:50.264Z,6.31
2022-11-29T03:01:25.305Z,6.30
2022-11-29T03:04:01.209Z,6.40
2022-11-29T03:06:40.524Z,6.48
2022-11-29T03:09:17.144Z,6.47
2022-11-29T03:11:50.737Z,6.36
2022-11-29T03:14:25.219Z,6.36
2022-11-29T03:17:05.174Z,6.33
2022-11-29T03:19:48.012Z,6.33
2022-11-29T03:22:26.104Z,6.39
2022-11-29T03:25:01.204Z,6.40
2022-11-29T03:27:37.636Z,6.50
2022-11-29T03:30:08.796Z,6.66
2022-11-29T03:32:44.735Z,6.69
2022-11-29T03:35:17.935Z,6.67
2022-11-29T03:37:56.084Z,6.55
2022-11-29T03:40:30.775Z,6.53
2022-11-29T03:43:05.571Z,6.62
2022-11-29T03:45:37.781Z,6.69
2022-11-29T03:48:10.668Z,6.70
2022-11-29T03:50:43.324Z,6.62
2022-11-29T03:53:19.198Z,6.60
2022-11-29T03:55:55.105Z,6.56
2022-11-29T03:58:36.278Z,6.60
2022-11-29T04:01:42.709Z,6.52
2022-11-29T04:04:28.738Z,6.53
2022-11-29T04:07:08.934Z,6.44
2022-11-29T04:09:56.687Z,6.44
2022-11-29T04:12:46.422Z,6.49
2022-11-29T04:15:48.579Z,6.51
2022-11-29T04:18:47.901Z,6.62
2022-11-29T04:21:46.226Z,6.57
2022-11-29T04:24:34.935Z,6.55
2022-11-29T04:27:29.271Z,6.64
2022-11-29T04:30:07.495Z,6.65
2022-11-29T04:33:13.846Z,6.70
2022-11-29T04:36:00.900Z,6.68
2022-11-29T04:39:04.411Z,6.66
2022-11-29T04:41:56.238Z,6.74
2022-11-29T04:44:43.039Z,6.76
2022-11-29T04:47:28.756Z,6.79
2022-11-29T04:50:13.807Z,6.70
2022-11-29T04:53:09.877Z,6.64
2022-11-29T04:55:45.780Z,6.51
2022-11-29T04:58:22.692Z,6.50
2022-11-29T05:01:06.117Z,6.59
2022-11-29T05:03:39.832Z,6.71
2022-11-29T05:06:26.830Z,6.68
2022-11-29T05:09:04.098Z,6.78
2022-11-29T05:11:42.434Z,6.75
2022-11-29T05:14:21.031Z,6.75
2022-11-29T05:16:57.965Z,6.66
2022-11-29T05:20:13.720Z,6.63
2022-11-29T05:22:50.223Z,6.49
2022-11-29T05:25:35.695Z,6.53
2022-11-29T05:28:10.994Z,6.54
2022-11-29T05:31:02.347Z,6.58
2022-11-29T05:33:54.077Z,6.65
2022-11-29T05:36:29.414Z,6.50
2022-11-29T05:39:14.789Z,6.38
2022-11-29T05:41:58.785Z,6.44
2022-11-29T05:44:38.060Z,6.38
2022-11-29T05:47:10.009Z,6.27
2022-11-29T05:49:46.146Z,6.29
2022-11-29T05:52:22.945Z,6.29
2022-11-29T05:55:04.033Z,6.33
2022-11-29T05:57:42.721Z,6.36
2022-11-29T06:00:13.284Z,6.41
2022-11-29T06:02:52.510Z,6.47
2022-11-29T06:05:29.999Z,6.41
2022-11-29T06:08:06.258Z,6.32
2022-11-29T06:10:40.103Z,6.22
2022-11-29T06:13:21.924Z,6.19
2022-11-29T06:16:11.153Z,6.33
2022-11-29T06:19:09.263Z,6.31
2022-11-29T06:21:46.077Z,6.35
2022-11-29T06:24:36.075Z,6.24
2022-11-29T06:27:22.433Z,6.24
2022-11-29T06:29:57.863Z,6.32
2022-11-29T06:32:32.502Z,6.39
2022-11-29T06:35:05.275Z,6.42
2022-11-29T06:37:40.316Z,6.28
2022-11-29T06:40:12.598Z,6.25
2022-11-29T06:42:40.549Z,6.24
2022-11-29T06:45:11.589Z,6.24
2022-11-29T06:47:45.255Z,6.30
2022-11-29T06:50:31.310Z,6.36
2022-11-29T06:53:09.196Z,6.31
2022-11-29T06:55:48.689Z,6.36
2022-11-29T06:58:36.390Z,6.48
2022-11-29T07:01:11.873Z,6.57
2022-11-29T07:04:00.243Z,6.59
2022-11-29T07:06:30.603Z,6.48
2022-11-29T07:09:02.404Z,6.46
2022-11-29T07:11:31.192Z,6.33
2022-11-29T07:13:59.552Z,6.41
2022-11-29T07:16:32.143Z,6.45
2022-11-29T07:19:10.654Z,6.53
2022-11-29T07:21:54.062Z,6.54
2022-11-29T07:24:39.301Z,6.59
2022-11-29T07:27:17.411Z,6.51
2022-11-29T07:30:05.091Z,6.47
2022-11-29T07:32:51.373Z,6.50
2022-11-29T07:35:27.542Z,6.58
2022-11-29T07:38:08.210Z,6.60
2022-11-29T07:40:45.679Z,6.55
2022-11-29T07:43:26.237Z,6.59
2022-11-29T07:45:55.274Z,6.62
2022-11-29T07:48:28.215Z,6.69
2022-11-29T07:50:57.869Z,6.48
2022-11-29T07:53:25.859Z,6.48
2022-11-29T07:55:55.259Z,6.44
2022-11-29T07:58:23.475Z,6.38
2022-11-29T08:00:51.418Z,6.37
2022-11-29T08:03:21.984Z,6.46
2022-11-29T08:05:53.414Z,6.52
2022-11-29T08:08:21.257Z,6.57
2022-11-29T08:10:49.344Z,6.50
2022-11-29T08:13:20.456Z,6.52
2022-11-29T08:15:49.471Z,6.55
2022-11-29T08:18:17.623Z,6.60
2022-11-29T08:20:46.406Z,6.65
2022-11-29T08:23:15.291Z,6.60
2022-11-29T08:25:43.193Z,6.64
2022-11-29T08:28:11.335Z,6.65
2022-11-29T08:30:40.726Z,6.65
2022-11-29T08:33:08.922Z,6.67
2022-11-29T08:35:36.920Z,6.60
2022-11-29T08:38:05.269Z,6.58
2022-11-29T08:40:33.168Z,6.70
2022-11-29T08:43:00.986Z,6.74
2022-11-29T08:45:29.237Z,6.85
2022-11-29T08:47:58.573Z,6.89
2022-11-29T08:50:27.170Z,6.95
2022-11-29T08:53:12.432Z,7.06
2022-11-29T08:55:43.069Z,6.98
2022-11-29T08:58:13.624Z,6.97
2022-11-29T09:00:43.829Z,6.85
2022-11-29T09:03:30.755Z,6.86
2022-11-29T09:05:59.812Z,6.96
2022-11-29T09:08:28.965Z,6.82
2022-11-29T09:10:57.107Z,6.97
2022-11-29T09:13:24.986Z,7.03
2022-11-29T09:15:52.987Z,7.15
2022-11-29T09:18:25.124Z,7.01
2022-11-29T09:20:52.958Z,7.06
2022-11-29T09:23:21.453Z,7.06
2022-11-29T09:25:50.537Z,7.12
2022-11-29T09:28:18.594Z,7.01
2022-11-29T09:30:46.816Z,7.07
2022-11-29T09:33:20.254Z,7.13
2022-11-29T09:35:50.496Z,7.16
2022-11-29T09:38:18.748Z,7.14
2022-11-29T09:40:53.450Z,7.21
2022-11-29T09:43:30.663Z,7.27
2022-11-29T09:46:04.043Z,7.27
2022-11-29T09:49:00.211Z,7.12
2022-11-29T09:51:41.167Z,6.76
2022-11-29T09:54:29.449Z,6.80
2022-11-29T09:56:58.396Z,7.00
2022-11-29T09:59:30.096Z,7.05
2022-11-29T10:02:04.485Z,7.11
2022-11-29T10:04:37.458Z,7.03
2022-11-29T10:07:15.370Z,6.90
2022-11-29T10:09:47.777Z,6.81
2022-11-29T10:12:21.034Z,6.91
2022-11-29T10:14:55.615Z,6.95
2022-11-29T10:17:35.085Z,6.93
2022-11-29T10:20:07.353Z,7.03
2022-11-29T10:22:43.771Z,6.79
2022-11-29T10:25:21.268Z,6.91
2022-11-29T10:27:49.202Z,7.01
2022-11-29T10:30:17.664Z,6.88
2022-11-29T10:32:48.024Z,6.80
2022-11-29T10:35:18.353Z,6.99
2022-11-29T10:38:14.594Z,7.16
2022-11-29T10:40:40.843Z,7.29
2022-11-29T10:43:09.227Z,7.22
2022-11-29T10:45:44.387Z,7.19
2022-11-29T10:48:15.672Z,7.20
2022-11-29T10:50:45.569Z,7.24
2022-11-29T10:53:17.260Z,7.13
2022-11-29T10:55:50.275Z,7.23
2022-11-29T10:58:26.260Z,7.33
2022-11-29T11:00:57.758Z,7.50
2022-11-29T11:03:30.442Z,7.58
2022-11-29T11:06:01.342Z,7.45
2022-11-29T11:08:33.041Z,7.50
2022-11-29T11:11:02.394Z,7.53
2022-11-29T11:13:32.208Z,7.38
2022-11-29T11:16:10.303Z,7.47
2022-11-29T11:18:39.155Z,7.44
2022-11-29T11:21:10.616Z,7.37
2022-11-29T11:23:46.456Z,7.51
2022-11-29T11:26:15.965Z,7.56
2022-11-29T11:28:50.182Z,7.41
2022-11-29T11:31:28.907Z,7.58
2022-11-29T11:33:56.877Z,7.66
2022-11-29T11:36:27.293Z,7.66
2022-11-29T11:38:59.170Z,7.59
2022-11-29T11:41:44.729Z,7.68
2022-11-29T11:44:47.330Z,7.66
2022-11-29T11:47:21.512Z,7.56
2022-11-29T11:49:55.832Z,7.51
2022-11-29T11:52:26.175Z,7.58
2022-11-29T11:54:59.991Z,7.58
2022-11-29T11:57:29.722Z,7.50
2022-11-29T12:00:04.971Z,7.31
2022-11-29T12:02:39.338Z,7.23
2022-11-29T12:05:14.299Z,7.28
2022-11-29T12:10:41.377Z,7.35
2022-11-29T12:13:19.787Z,7.21
2022-11-29T12:15:50.853Z,7.23
2022-11-29T12:18:27.195Z,7.37
2022-11-29T12:20:59.363Z,7.23
2022-11-29T12:23:36.606Z,7.24
2022-11-29T12:26:13.636Z,7.14
2022-11-29T12:28:48.332Z,7.30
2022-11-29T12:31:34.302Z,7.39
2022-11-29T12:34:13.370Z,7.38
2022-11-29T12:36:51.439Z,7.42
2022-11-29T12:39:36.438Z,7.37
2022-11-29T12:42:14.912Z,7.44
2022-11-29T12:44:53.250Z,7.44
2022-11-29T12:47:39.075Z,7.44
2022-11-29T12:50:25.738Z,7.48
2022-11-29T12:53:03.298Z,7.53
2022-11-29T12:55:40.792Z,7.58
2022-11-29T12:58:16.552Z,7.36
2022-11-29T13:00:53.480Z,7.43
2022-11-29T13:03:27.289Z,7.34
2022-11-29T13:06:08.991Z,7.32
2022-11-29T13:08:58.124Z,7.21
2022-11-29T13:11:30.509Z,7.17
2022-11-29T13:14:40.811Z,7.24
2022-11-29T13:17:00.077Z,7.22
2022-11-29T13:19:35.505Z,7.29
2022-11-29T13:22:12.134Z,7.37
2022-11-29T13:24:44.284Z,7.40
2022-11-29T13:27:18.069Z,7.32
2022-11-29T13:29:48.057Z,7.42
2022-11-29T13:32:35.210Z,7.37
2022-11-29T13:35:08.468Z,7.20
2022-11-29T13:37:50.616Z,7.22
2022-11-29T13:40:34.060Z,7.20
2022-11-29T13:43:13.260Z,7.22
2022-11-29T13:45:49.428Z,7.15
2022-11-29T13:48:34.721Z,7.20
2022-11-29T13:51:28.011Z,7.30
2022-11-29T13:53:57.853Z,7.27
2022-11-29T13:56:29.739Z,7.26
2022-11-29T13:58:59.402Z,7.26
2022-11-29T14:01:29.516Z,7.23
2022-11-29T14:04:07.174Z,7.23
2022-11-29T14:06:36.776Z,7.15
2022-11-29T14:09:27.275Z,7.12
2022-11-29T14:12:02.979Z,7.16
2022-11-29T14:14:36.489Z,7.19
2022-11-29T14:17:07.277Z,7.14
2022-11-29T14:19:37.041Z,7.20
2022-11-29T14:22:22.518Z,7.20
2022-11-29T14:25:11.779Z,7.20
2022-11-29T14:27:57.347Z,7.25
2022-11-29T14:30:49.848Z,7.39
2022-11-29T14:33:53.263Z,7.33
2022-11-29T14:36:41.908Z,7.17
2022-11-29T14:39:28.916Z,7.14
2022-11-29T14:42:14.535Z,7.17
2022-11-29T14:44:48.023Z,7.30
2022-11-29T14:47:24.281Z,7.39
2022-11-29T14:49:56.747Z,7.30
2022-11-29T14:52:34.920Z,7.42
2022-11-29T14:55:10.263Z,7.34
2022-11-29T14:58:09.946Z,7.45
2022-11-29T15:00:56.269Z,7.49
2022-11-29T15:03:33.010Z,7.37
2022-11-29T15:06:10.976Z,7.47
2022-11-29T15:08:48.147Z,7.49
2022-11-29T15:11:25.295Z,7.47
2022-11-29T15:14:02.825Z,7.42
2022-11-29T15:16:45.295Z,7.43
2022-11-29T15:20:10.372Z,7.54
2022-11-29T15:22:47.530Z,7.50
2022-11-29T15:25:20.295Z,7.45
2022-11-29T15:27:54.946Z,7.45
2022-11-29T15:30:30.164Z,7.21
2022-11-29T15:32:58.701Z,7.24
2022-11-29T15:35:26.981Z,7.18
2022-11-29T15:37:56.818Z,7.22
2022-11-29T15:40:31.445Z,7.21
2022-11-29T15:43:05.135Z,7.29
2022-11-29T15:45:35.120Z,7.24
2022-11-29T15:48:15.374Z,7.28
2022-11-29T15:50:49.156Z,7.23
2022-11-29T15:53:24.496Z,7.23
2022-11-29T15:55:55.574Z,7.35
2022-11-29T15:58:24.709Z,7.33
2022-11-29T16:00:54.196Z,7.34
2022-11-29T16:03:26.555Z,7.22
2022-11-29T16:06:03.245Z,7.30
2022-11-29T16:08:35.942Z,7.33
2022-11-29T16:11:03.855Z,7.36
2022-11-29T16:13:38.597Z,7.43
2022-11-29T16:16:11.869Z,7.42
2022-11-29T16:18:42.354Z,7.35
2022-11-29T16:21:24.311Z,7.45
2022-11-29T16:23:54.733Z,7.48
2022-11-29T16:26:27.541Z,7.55
2022-11-29T16:28:57.991Z,7.48
2022-11-29T16:31:32.944Z,7.43
2022-11-29T16:34:08.143Z,7.34
2022-11-29T16:36:36.997Z,7.31
2022-11-29T16:39:17.148Z,7.34
2022-11-29T16:41:45.073Z,7.45
2022-11-29T16:45:03.260Z,7.34
2022-11-29T16:47:33.343Z,7.32
2022-11-29T16:50:19.452Z,7.39
2022-11-29T16:52:49.830Z,7.39
2022-11-29T16:55:23.078Z,7.50
2022-11-29T16:57:52.091Z,7.41
2022-11-29T17:00:29.893Z,7.43
2022-11-29T17:02:57.864Z,7.31
2022-11-29T17:05:25.985Z,7.39
2022-11-29T17:07:54.317Z,7.37
2022-11-29T17:10:26.409Z,7.34
2022-11-29T17:12:57.057Z,7.29
2022-11-29T17:15:25.373Z,7.32
2022-11-29T17:17:53.581Z,7.32
2022-11-29T17:20:21.557Z,7.28
2022-11-29T17:22:49.392Z,7.27
2022-11-29T17:25:17.515Z,7.26
2022-11-29T17:27:46.909Z,7.22
2022-11-29T17:30:15.656Z,7.09
2022-11-29T17:32:43.778Z,7.07
2022-11-29T17:35:11.774Z,6.94
2022-11-29T17:37:39.691Z,7.10
2022-11-29T17:40:09.024Z,7.17
2022-11-29T17:42:37.388Z,7.32
2022-11-29T17:45:07.393Z,7.31
2022-11-29T17:47:35.424Z,7.32
2022-11-29T17:50:03.685Z,7.28
2022-11-29T17:52:31.611Z,7.27
2022-11-29T17:54:59.461Z,7.19
2022-11-29T17:57:27.444Z,7.20
2022-11-29T17:59:55.408Z,7.26
2022-11-29T18:02:24.765Z,7.18
2022-11-29T18:04:53.293Z,7.14
2022-11-29T18:07:21.260Z,7.16
2022-11-29T18:09:49.331Z,7.21
2022-11-29T18:12:17.460Z,7.12
2022-11-29T18:14:45.701Z,7.14
2022-11-29T18:17:13.703Z,7.13
2022-11-29T18:19:43.497Z,7.03
2022-11-29T18:22:11.753Z,7.17
2022-11-29T18:24:43.652Z,7.25
2022-11-29T18:27:11.591Z,7.38
2022-11-29T18:29:39.564Z,7.43
2022-11-29T18:32:07.481Z,7.49
2022-11-29T18:34:35.371Z,7.46
2022-11-29T18:37:04.648Z,7.51
2022-11-29T18:39:32.722Z,7.57
2022-11-29T18:42:00.692Z,7.64
2022-11-29T18:44:33.255Z,7.58
2022-11-29T18:47:01.169Z,7.62
2022-11-29T18:49:29.071Z,7.61
2022-11-29T18:51:57.181Z,7.55
2022-11-29T18:54:26.419Z,7.61
2022-11-29T18:56:54.337Z,7.43
2022-11-29T18:59:23.142Z,7.40
2022-11-29T19:01:51.277Z,7.47
2022-11-29T19:04:21.143Z,7.51
2022-11-29T19:06:49.868Z,7.55
2022-11-29T19:09:20.878Z,7.40
2022-11-29T19:11:50.850Z,7.32
2022-11-29T19:14:19.310Z,7.28
2022-11-29T19:16:49.946Z,7.34
2022-11-29T19:19:18.985Z,7.39
2022-11-29T19:21:47.179Z,7.39
2022-11-29T19:24:17.718Z,7.33
2022-11-29T19:26:47.596Z,7.34
2022-11-29T19:29:17.586Z,7.24
2022-11-29T19:31:45.625Z,7.10
2022-11-29T19:34:13.574Z,7.16
2022-11-29T19:36:44.422Z,7.15
2022-11-29T19:39:14.666Z,7.15
2022-11-29T19:41:44.436Z,7.15
2022-11-29T19:44:12.853Z,7.16
2022-11-29T19:46:44.584Z,7.27
2022-11-29T19:49:13.159Z,7.24
2022-11-29T19:51:41.315Z,7.34
2022-11-29T19:54:10.817Z,7.30
2022-11-29T19:56:39.350Z,7.20
2022-11-29T19:59:07.856Z,7.01
2022-11-29T20:01:40.784Z,7.12
2022-11-29T20:04:13.099Z,7.10
2022-11-29T20:06:41.704Z,7.09
2022-11-29T20:09:09.820Z,7.06
2022-11-29T20:11:37.834Z,7.14
2022-11-29T20:14:07.144Z,7.03
2022-11-29T20:16:35.113Z,7.06
2022-11-29T20:19:02.943Z,7.20
2022-11-29T20:21:33.929Z,7.10
2022-11-29T20:24:03.300Z,7.16
2022-11-29T20:26:33.314Z,7.22
2022-11-29T20:29:02.049Z,7.12
2022-11-29T20:31:30.463Z,7.15
2022-11-29T20:33:58.820Z,7.23
2022-11-29T20:36:41.139Z,7.22
2022-11-29T20:39:21.851Z,7.19
2022-11-29T20:42:02.343Z,7.11
2022-11-29T20:44:38.782Z,7.20
2022-11-29T20:47:15.142Z,7.13
2022-11-29T20:49:43.425Z,7.25
2022-11-29T20:52:26.596Z,7.30
2022-11-29T20:54:54.422Z,7.13
2022-11-29T20:57:22.447Z,7.12
2022-11-29T20:59:50.362Z,7.19
2022-11-29T21:02:18.407Z,7.09
2022-11-29T21:04:46.445Z,7.08
2022-11-29T21:07:16.217Z,7.18
2022-11-29T21:09:44.453Z,7.09
2022-11-29T21:12:13.489Z,7.12
2022-11-29T21:14:41.934Z,7.12
2022-11-29T21:17:10.668Z,7.13
2022-11-29T21:19:39.365Z,7.12
2022-11-29T21:22:15.571Z,7.00
2022-11-29T21:24:54.737Z,7.18
2022-11-29T21:27:28.821Z,7.16
2022-11-29T21:29:57.581Z,7.16
2022-11-29T21:32:28.143Z,7.05
2022-11-29T21:34:56.032Z,6.98
2022-11-29T21:37:28.620Z,6.95
2022-11-29T21:39:58.380Z,7.11
2022-11-29T21:42:26.363Z,7.03
2022-11-29T21:44:54.215Z,7.20
2022-11-29T21:47:22.086Z,7.06
2022-11-29T21:49:52.376Z,7.09
2022-11-29T21:52:22.838Z,7.16
2022-11-29T21:54:51.515Z,7.17
2022-11-29T21:57:20.803Z,7.21
2022-11-29T21:59:48.673Z,7.28
2022-11-29T22:02:16.800Z,7.30
2022-11-29T22:04:45.314Z,7.38
2022-11-29T22:07:13.431Z,7.13
2022-11-29T22:09:41.438Z,7.16
2022-11-29T22:12:31.997Z,7.03
2022-11-29T22:14:58.526Z,7.01
2022-11-29T22:17:26.331Z,7.00
2022-11-29T22:19:54.226Z,6.91
2022-11-29T22:22:22.086Z,7.01
2022-11-29T22:24:50.249Z,7.06
2022-11-29T22:27:18.746Z,6.99
2022-11-29T22:29:46.650Z,7.05
2022-11-29T22:32:15.959Z,6.99
2022-11-29T22:34:44.062Z,7.14
2022-11-29T22:37:12.508Z,7.22
2022-11-29T22:39:40.399Z,7.25
2022-11-29T22:42:08.318Z,7.23
2022-11-29T22:44:36.569Z,7.14
2022-11-29T22:47:04.508Z,7.18
2022-11-29T22:49:34.228Z,7.19
2022-11-29T22:52:02.085Z,7.15
2022-11-29T22:54:29.916Z,7.19
2022-11-29T22:56:57.898Z,7.18
2022-11-29T22:59:25.743Z,7.27
2022-11-29T23:01:55.351Z,7.23
2022-11-29T23:04:23.151Z,7.25
2022-11-29T23:06:52.450Z,7.28
2022-11-29T23:09:22.732Z,7.23
2022-11-29T23:11:53.185Z,7.22
2022-11-29T23:14:22.099Z,7.22
2022-11-29T23:16:50.168Z,7.05
2022-11-29T23:19:18.490Z,7.17
2022-11-29T23:21:46.503Z,7.18
2022-11-29T23:24:16.263Z,7.23
2022-11-29T23:26:46.926Z,7.23
2022-11-29T23:29:17.129Z,7.31
2022-11-29T23:31:45.217Z,7.27
2022-11-29T23:34:13.474Z,7.31
2022-11-29T23:36:41.592Z,7.36
2022-11-29T23:39:09.495Z,7.42
2022-11-29T23:41:38.924Z,7.36
2022-11-29T23:44:08.715Z,7.38
2022-11-29T23:46:37.034Z,7.49
2022-11-29T23:49:05.310Z,7.45
2022-11-29T23:51:33.224Z,7.27
2022-11-29T23:54:01.503Z,7.35
2022-11-29T23:56:35.139Z,7.24
2022-11-29T23:59:04.906Z,7.31
